Latest Weather Observations for Kilmore Gap

IDV60801

Issued at 1:03 pm EST Thursday 25 May 2017 (issued every 30 minutes, with the page automatically refreshed every 10 minutes)

About weather observations | Map of weather stations | Latest weather observations for VIC | Other Formats
Station Details ID: 088162 Name: KILMORE GAP Lat: -37.38 Lon: 144.97 Height: 527.8 m
Data from the previous 72 hours. | See also: Recent months at Kilmore Gap
Date/Time
EST
Temp
°C
App
Temp
°C
Dew
Point
°C
Rel
Hum
%
Delta-T
°C
Wind Press
QNH
hPa
Press
MSL
hPa
Rain since
9am
mm
Dir  Spd
km/h
Gust
km/h
Spd
kts
Gust
kts
25/01:00pm 11.8 7.7 8.8 82 1.5 N 20 24 11 13 1020.0 1020.2 0.0
25/12:30pm 10.1 6.2 9.3 95 0.4 N 20 26 11 14 1020.6 1020.7 0.0
25/12:28pm 9.9 5.9 9.1 95 0.4 N 20 26 11 14 1020.6 1020.7 0.0
25/12:03pm 9.6 5.7 9.3 98 0.2 N 20 26 11 14 1020.9 1021.0 0.0
25/12:00pm 9.4 5.0 9.1 98 0.2 N 22 26 12 14 1021.0 1021.1 0.0
25/11:43am 9.5 5.5 8.9 96 0.3 N 20 26 11 14 1021.1 1021.2 0.0
25/11:30am 9.5 5.8 9.4 99 0.1 N 19 24 10 13 1021.3 1021.4 0.0
25/11:00am 8.8 4.9 8.7 99 0.0 N 19 24 10 13 1021.5 1021.7 0.0
25/10:30am 8.6 4.6 8.2 97 0.2 N 19 24 10 13 1021.6 1021.8 0.0
25/10:00am 8.9 4.8 8.0 94 0.4 NNW 19 24 10 13 1021.5 1021.7 0.0
25/09:30am 8.5 4.4 7.7 95 0.4 NNW 19 24 10 13 1021.5 1021.7 0.0
25/09:00am 8.2 3.8 7.3 94 0.4 NNW 20 26 11 14 1021.3 1021.4 0.0
25/08:30am 8.1 3.6 6.9 92 0.6 NNW 20 24 11 13 1021.0 1021.1 0.0
25/08:22am 8.2 3.3 6.8 91 0.7 NNW 22 30 12 16 1020.9 1021.0 0.0
25/08:00am 7.3 3.2 6.4 94 0.4 N 17 22 9 12 1020.8 1020.9 0.0
25/07:30am 7.5 2.5 6.3 92 0.6 NNW 22 26 12 14 1020.5 1020.6 0.0
25/07:00am 7.7 4.0 6.5 92 0.6 NNW 15 20 8 11 1020.5 1020.6 0.0
25/06:30am 8.3 4.2 6.3 87 0.9 N 17 20 9 11 1020.3 1020.5 0.0
25/06:00am 8.3 3.6 5.9 85 1.1 N 20 26 11 14 1020.1 1020.3 0.0
25/05:30am 8.3 3.8 5.9 85 1.1 N 19 24 10 13 1020.0 1020.2 0.0
25/05:00am 8.8 4.4 6.4 85 1.1 NNW 19 22 10 12 1020.0 1020.2 0.0
25/04:30am 9.4 5.8 6.8 84 1.3 NNW 15 19 8 10 1019.8 1020.0 0.0
25/04:00am 9.5 5.6 6.9 84 1.3 NNW 17 19 9 10 1019.7 1019.8 0.0
25/03:30am 8.8 5.6 6.9 88 0.9 NNW 13 15 7 8 1019.8 1020.0 0.0
25/03:00am 8.6 5.4 6.7 88 0.9 N 13 17 7 9 1020.0 1020.2 0.0
25/02:30am 9.0 5.9 7.1 88 0.9 N 13 15 7 8 1020.0 1020.2 0.0
25/02:00am 9.7 6.6 7.3 85 1.2 NNW 13 17 7 9 1020.0 1020.2 0.0
25/01:30am 9.6 6.9 7.4 86 1.1 NW 11 15 6 8 1020.1 1020.3 0.0
25/01:00am 9.7 6.6 7.1 84 1.3 NW 13 15 7 8 1020.3 1020.5 0.0
25/12:30am 9.6 7.2 7.2 85 1.2 NW 9 13 5 7 1020.5 1020.6 0.0
25/12:00am 9.5 7.5 7.1 85 1.2 NW 7 11 4 6 1020.7 1020.8 0.0
 
Date/Time
EST
Temp
°C
App
Temp
°C
Dew
Point
°C
Rel
Hum
%
Delta-T
°C
Wind Press
QNH
hPa
Press
MSL
hPa
Rain since
9am
mm
Dir  Spd
km/h
Gust
km/h
Spd
kts
Gust
kts
24/11:30pm 9.7 7.7 7.1 84 1.3 WNW 7 13 4 7 1020.7 1020.8 0.0
24/11:00pm 9.5 7.0 6.6 82 1.4 NW 9 13 5 7 1020.6 1020.7 0.0
24/10:30pm 9.3 6.3 6.2 81 1.5 NW 11 13 6 7 1020.7 1020.8 0.0
24/10:00pm 9.2 6.9 5.9 80 1.6 NW 7 11 4 6 1020.8 1020.9 0.0
24/09:30pm 9.9 6.8 5.7 75 2.0 W 11 15 6 8 1020.6 1020.7 0.0
24/09:00pm 10.0 7.3 5.6 74 2.1 W 9 13 5 7 1020.2 1020.4 0.0
24/08:30pm 10.2 6.7 5.4 72 2.3 W 13 15 7 8 1020.1 1020.3 0.0
24/08:00pm 10.1 7.3 5.3 72 2.2 W 9 13 5 7 1020.0 1020.2 0.0
24/07:30pm 9.9 7.7 5.3 73 2.2 WNW 6 7 3 4 1019.7 1019.8 0.0
24/07:00pm 10.2 7.5 5.4 72 2.3 WSW 9 13 5 7 1019.6 1019.7 0.0
24/06:30pm 9.8 6.6 5.2 73 2.1 WSW 11 17 6 9 1019.5 1019.6 0.0
24/06:00pm 9.8 6.6 5.2 73 2.1 SW 11 15 6 8 1019.3 1019.4 0.0
24/05:30pm 9.8 6.3 5.4 74 2.1 SW 13 17 7 9 1019.0 1019.1 0.0
24/05:00pm 10.3 6.9 5.7 73 2.2 SW 13 20 7 11 1018.7 1018.8 0.0
24/04:30pm 10.6 6.7 5.4 70 2.5 SW 15 20 8 11 1018.3 1018.5 0.0
24/04:00pm 11.2 6.4 5.5 68 2.7 WSW 20 28 11 15 1017.9 1018.0 0.0
24/03:30pm 11.7 8.5 7.0 73 2.3 WSW 13 22 7 12 1017.5 1017.6 0.0
24/03:00pm 12.6 8.4 7.3 70 2.6 WSW 19 28 10 15 1017.1 1017.2 0.0
24/02:30pm 11.5 7.1 7.4 76 2.0 WSW 20 28 11 15 1017.0 1017.1 0.0
24/02:00pm 12.6 8.5 7.7 72 2.5 WSW 19 28 10 15 1016.7 1016.8 0.0
24/01:30pm 12.3 7.6 7.6 73 2.4 WSW 22 32 12 17 1016.5 1016.5 0.0
24/01:00pm 12.2 8.2 8.1 76 2.1 SW 19 28 10 15 1016.7 1016.8 0.0
24/12:30pm 12.9 9.3 8.4 74 2.3 WSW 17 24 9 13 1016.7 1016.8 0.0
24/12:00pm 11.7 6.9 7.4 75 2.1 WSW 22 30 12 16 1016.9 1017.0 0.0
24/11:30am 11.7 8.3 7.8 77 2.0 WSW 15 22 8 12 1017.0 1017.1 0.0
24/11:00am 11.0 8.4 7.9 81 1.5 W 11 17 6 9 1017.0 1017.1 0.0
24/10:30am 10.8 8.0 8.7 87 1.1 NW 13 17 7 9 1016.9 1017.0 0.0
24/10:00am 10.5 6.8 7.9 84 1.3 NW 17 24 9 13 1016.3 1016.4 0.0
24/09:30am 10.1 6.5 8.4 89 0.9 NW 17 24 9 13 1016.1 1016.2 0.0
24/09:00am 9.5 5.8 8.1 91 0.7 NNW 17 20 9 11 1015.8 1015.9 0.6
24/08:30am 8.7 5.2 7.3 91 0.7 NNW 15 20 8 11 1015.6 1015.7 0.6
24/08:00am 8.2 4.6 6.8 91 0.7 NW 15 19 8 10 1015.2 1015.3 0.6
24/07:30am 7.6 3.3 6.9 95 0.3 NW 19 22 10 12 1015.0 1015.1 0.6
24/07:00am 7.4 3.4 6.5 94 0.4 NW 17 20 9 11 1014.7 1014.7 0.6
24/06:30am 7.6 3.6 6.5 93 0.5 NNW 17 20 9 11 1014.3 1014.4 0.6
24/06:00am 7.9 3.6 7.0 94 0.4 NW 19 22 10 12 1013.9 1014.0 0.6
24/05:30am 8.2 3.9 7.1 93 0.5 NW 19 24 10 13 1013.6 1013.7 0.6
24/05:00am 8.6 4.2 7.2 91 0.7 NW 20 30 11 16 1013.1 1013.1 0.6
24/04:30am 8.9 4.1 7.4 90 0.7 NW 22 28 12 15 1012.9 1012.9 0.6
24/04:00am 8.8 4.4 7.4 91 0.7 WNW 20 28 11 15 1013.0 1013.0 0.6
24/03:30am 8.8 3.6 7.4 91 0.7 WNW 24 39 13 21 1013.0 1013.0 0.6
24/03:04am 8.7 5.2 8.6 99 0.0 NW 17 26 9 14 1013.1 1013.1 0.6
24/03:02am 8.6 5.0 8.5 99 0.0 NW 17 20 9 11 1013.2 1013.2 0.6
24/03:00am 8.5 4.9 8.4 99 0.0 NW 17 20 9 11 1013.2 1013.2 0.6
24/02:30am 8.4 4.4 8.3 99 0.0 N 19 24 10 13 1013.2 1013.2 0.6
24/02:28am 8.5 4.9 8.4 99 0.0 N 17 20 9 11 1013.2 1013.2 0.6
24/02:12am 8.8 4.7 8.7 99 0.1 N 20 24 11 13 1013.1 1013.1 0.6
24/02:00am 8.8 4.7 8.7 99 0.1 NNW 20 28 11 15 1013.2 1013.2 0.6
24/01:30am 9.1 5.1 9.0 99 0.1 N 20 24 11 13 1013.1 1013.1 0.6
24/01:02am 9.2 5.4 9.1 99 0.1 N 19 20 10 11 1013.5 1013.6 0.6
24/01:00am 9.2 5.4 9.1 99 0.1 N 19 24 10 13 1013.5 1013.6 0.6
24/12:58am 9.2 5.4 9.1 99 0.1 N 19 24 10 13 1013.5 1013.6 0.6
24/12:30am 9.7 5.1 9.6 99 0.1 N 24 26 13 14 1013.7 1013.8 0.6
24/12:00am 9.6 5.7 9.5 99 0.1 N 20 22 11 12 1013.8 1013.9 0.6
 
Date/Time
EST
Temp
°C
App
Temp
°C
Dew
Point
°C
Rel
Hum
%
Delta-T
°C
Wind Press
QNH
hPa
Press
MSL
hPa
Rain since
9am
mm
Dir  Spd
km/h
Gust
km/h
Spd
kts
Gust
kts
23/11:52pm 9.7 5.8 9.6 99 0.1 N 20 22 11 12 1013.8 1013.9 0.6
23/11:51pm 9.7 5.8 9.6 99 0.1 N 20 24 11 13 1013.8 1013.9 0.6
23/11:30pm 10.1 5.6 10.0 99 0.1 N 24 28 13 15 1014.1 1014.2 0.4
23/11:00pm 10.7 6.3 10.5 99 0.1 N 24 30 13 16 1014.6 1014.6 0.4
23/10:30pm 11.0 6.3 10.8 99 0.1 NNW 26 33 14 18 1014.8 1014.8 0.4
23/10:00pm 11.2 5.8 11.0 99 0.1 N 30 37 16 20 1014.9 1014.9 0.2
23/09:30pm 11.4 5.7 11.1 98 0.2 N 32 39 17 21 1014.9 1014.9 0.2
23/09:00pm 11.6 5.9 11.0 96 0.3 N 32 43 17 23 1014.8 1014.8 0.2
23/08:30pm 11.2 5.8 10.9 98 0.2 N 30 37 16 20 1014.6 1014.6 0.2
23/08:00pm 11.3 5.9 10.8 97 0.3 N 30 35 16 19 1014.5 1014.5 0.2
23/07:30pm 11.1 6.4 10.6 97 0.3 N 26 32 14 17 1014.5 1014.5 0.2
23/07:00pm 11.2 6.4 10.4 95 0.4 N 26 32 14 17 1014.7 1014.7 0.2
23/06:30pm 11.2 6.8 10.4 95 0.4 N 24 32 13 17 1014.9 1014.9 0.2
23/06:00pm 11.3 7.3 10.4 94 0.5 N 22 28 12 15 1015.1 1015.2 0.2
23/05:30pm 11.5 7.9 10.4 93 0.6 N 20 24 11 13 1015.1 1015.2 0.2
23/05:00pm 11.7 8.1 9.9 89 0.9 N 19 24 10 13 1014.8 1014.8 0.2
23/04:30pm 12.7 8.6 10.1 84 1.4 N 22 30 12 16 1014.9 1014.9 0.2
23/04:00pm 13.0 8.5 10.2 83 1.5 N 24 32 13 17 1014.9 1014.9 0.2
23/03:38pm 13.4 8.3 10.6 83 1.5 N 28 35 15 19 1014.9 1014.9 0.2
23/03:30pm 13.5 8.7 10.3 81 1.7 N 26 33 14 18 1014.9 1014.9 0.2
23/03:07pm 13.9 9.2 10.5 80 1.8 N 26 35 14 19 1014.9 1014.9 0.2
23/03:00pm 12.8 7.6 10.3 85 1.3 N 28 35 15 19 1015.0 1015.1 0.2
23/02:30pm 13.5 7.9 10.3 81 1.7 N 30 37 16 20 1015.1 1015.2 0.2
23/02:00pm 13.3 7.4 10.5 83 1.5 N 32 43 17 23 1015.1 1015.2 0.2
23/01:30pm 13.3 6.5 10.8 85 1.3 N 37 46 20 25 1015.2 1015.3 0.2
23/01:00pm 12.9 6.4 10.3 84 1.4 N 35 43 19 23 1015.6 1015.7 0.2
23/12:30pm 13.2 6.0 10.7 85 1.3 N 39 48 21 26 1015.9 1016.0 0.2
23/12:00pm 11.3 2.9 9.7 90 0.8 N 44 57 24 31 1016.0 1016.1 0.2
23/11:30am 11.5 4.2 10.2 92 0.7 N 39 52 21 28 1016.0 1016.1 0.2
23/11:18am 11.0 3.2 9.6 91 0.7 N 41 54 22 29 1016.7 1016.8 0.2
23/11:00am 10.9 3.5 9.7 92 0.6 N 39 52 21 28 1017.1 1017.2 0.2
23/10:42am 10.8 2.6 9.7 93 0.6 N 43 54 23 29 1017.2 1017.3 0.2
23/10:30am 11.0 3.2 9.6 91 0.7 N 41 54 22 29 1017.3 1017.4 0.2
23/10:00am 10.9 4.0 10.4 97 0.3 N 37 46 20 25 1017.8 1017.9 0.2
23/09:30am 11.2 3.9 8.9 86 1.2 N 37 52 20 28 1018.2 1018.4 0.0
23/09:00am 11.9 6.0 9.1 83 1.4 N 30 39 16 21 1018.5 1018.6 0.0
23/08:30am 11.2 5.7 9.1 87 1.1 NNW 28 37 15 20 1018.7 1018.8 0.0
23/08:00am 9.9 5.0 8.3 90 0.8 N 24 30 13 16 1019.0 1019.1 0.0
23/07:30am 10.0 5.4 8.3 89 0.9 N 22 28 12 15 1018.5 1018.6 0.0
23/07:00am 9.8 4.4 8.1 89 0.8 N 26 37 14 20 1018.7 1018.8 0.0
23/06:30am 10.3 5.7 8.1 86 1.1 N 22 28 12 15 1018.8 1018.9 0.0
23/06:00am 10.2 4.4 8.1 87 1.0 N 28 33 15 18 1018.2 1018.4 0.0
23/05:30am 10.2 4.8 8.1 87 1.0 NNE 26 32 14 17 1018.3 1018.5 0.0
23/05:00am 10.2 4.4 8.1 87 1.0 NNE 28 33 15 18 1017.8 1017.9 0.0
23/04:30am 10.2 4.8 8.1 87 1.0 NNE 26 32 14 17 1018.1 1018.2 0.0
23/04:00am 10.5 4.7 8.1 85 1.2 NNE 28 33 15 18 1018.1 1018.2 0.0
23/03:30am 10.2 3.5 8.3 88 1.0 N 33 39 18 21 1018.3 1018.5 0.0
23/03:00am 10.1 4.0 8.4 89 0.9 N 30 35 16 19 1018.6 1018.7 0.0
23/02:30am 10.4 4.3 8.2 86 1.1 N 30 35 16 19 1018.6 1018.7 0.0
23/02:00am 11.0 4.6 8.4 84 1.3 N 32 39 17 21 1018.9 1019.0 0.0
23/01:30am 10.9 3.9 8.5 85 1.2 N 35 43 19 23 1018.8 1018.9 0.0
23/01:00am 11.3 4.6 8.2 81 1.6 N 33 41 18 22 1018.7 1018.8 0.0
23/12:30am 11.3 4.3 8.3 82 1.5 N 35 43 19 23 1018.6 1018.7 0.0
23/12:00am 11.6 3.1 8.6 82 1.5 N 43 52 23 28 1017.8 1017.9 0.0
 
Date/Time
EST
Temp
°C
App
Temp
°C
Dew
Point
°C
Rel
Hum
%
Delta-T
°C
Wind Press
QNH
hPa
Press
MSL
hPa
Rain since
9am
mm
Dir  Spd
km/h
Gust
km/h
Spd
kts
Gust
kts
22/11:30pm 11.9 3.8 8.7 81 1.6 N 41 52 22 28 1018.0 1018.1 0.0
22/11:00pm 11.7 4.1 9.1 84 1.3 NNE 39 46 21 25 1018.5 1018.6 0.0
22/10:30pm 11.8 3.9 9.2 84 1.3 N 41 48 22 26 1018.9 1019.0 0.0
22/10:00pm 11.9 4.0 9.5 85 1.2 NNE 41 50 22 27 1018.7 1018.8 0.0
22/09:30pm 11.8 4.4 9.7 87 1.1 N 39 50 21 27 1018.7 1018.8 0.0
22/09:00pm 11.6 3.4 9.7 88 1.0 N 43 54 23 29 1018.5 1018.6 0.0
22/08:30pm 11.6 3.8 9.9 89 0.9 N 41 52 22 28 1018.7 1018.8 0.0
22/08:00pm 11.4 4.3 9.7 89 0.9 NNE 37 46 20 25 1018.5 1018.6 0.0
22/07:30pm 11.5 4.1 9.8 89 0.9 N 39 48 21 26 1018.6 1018.7 0.0
22/07:00pm 11.8 4.0 9.7 87 1.1 N 41 50 22 27 1018.7 1018.8 0.0
22/06:30pm 11.8 4.7 9.5 86 1.2 N 37 46 20 25 1018.7 1018.8 0.0
22/06:00pm 12.5 4.7 9.7 83 1.5 N 41 50 22 27 1018.5 1018.6 0.0
22/05:30pm 12.7 4.4 9.5 81 1.7 N 43 54 23 29 1018.1 1018.2 0.0
22/05:00pm 13.0 5.5 9.6 80 1.8 N 39 50 21 27 1018.2 1018.4 0.0
22/04:30pm 13.7 5.4 9.4 75 2.3 N 43 56 23 30 1018.1 1018.2 0.0
22/04:00pm 14.0 5.7 9.4 74 2.4 N 43 54 23 29 1018.2 1018.4 0.0
22/03:30pm 14.4 6.7 10.0 75 2.3 N 41 52 22 28 1018.7 1018.8 0.0
22/03:00pm 14.5 7.9 9.9 74 2.4 N 35 50 19 27 1018.5 1018.6 0.0
22/02:30pm 14.7 7.4 10.3 75 2.4 N 39 50 21 27 1018.8 1018.9 0.0
22/02:00pm 14.3 8.2 10.5 78 2.0 N 33 44 18 24 1019.4 1019.5 0.0
22/01:45pm 13.9 8.0 10.3 79 1.9 N 32 43 17 23 1019.6 1019.7 0.0
22/01:31pm 15.3 9.7 11.5 78 2.1 N 32 44 17 24 1019.7 1019.8 0.0
22/01:30pm 15.4 9.8 12.0 80 1.9 N 33 46 18 25 1019.7 1019.8 0.0
22/01:26pm 14.7 8.5 11.5 81 1.8 N 35 50 19 27 1019.7 1019.8 0.0
22/01:19pm 14.5 8.8 11.1 80 1.9 N 32 50 17 27 1019.7 1019.8 0.0

Other Formats:

Comma delimited format used in spreadsheet applications
http://www.bom.gov.au/fwo/IDV60801/IDV60801.94860.axf

JavaScript Object Notation format (JSON) in row-major order
http://www.bom.gov.au/fwo/IDV60801/IDV60801.94860.json